Time;durP1;ratioP1;P1;durP2;ratioP2;P2;SDS_P1;SDS_P2;PMS_P1;PMS_P2;Temp;Humidity;BMP_temperature;BMP_pressure;BME280_temperature;BME280_humidity;BME280_pressure;Samples;Min_cycle;Max_cycle;Signal;HPM_P1;HPM_P2
2022/06/29 00:02:13;;;;;;;2.10;1.70;;;22.60;87.50;;;;;;5055567;28;20473;-52
2022/06/29 00:04:39;;;;;;;3.10;2.00;;;22.60;88.40;;;;;;5025803;28;20987;-52
2022/06/29 00:07:06;;;;;;;2.30;2.00;;;22.50;88.60;;;;;;5052567;28;21005;-52
2022/06/29 00:09:34;;;;;;;2.33;2.00;;;22.50;89.30;;;;;;5060621;28;20487;-52
2022/06/29 00:12:01;;;;;;;2.60;2.40;;;22.40;90.10;;;;;;5057735;28;20490;-52
2022/06/29 00:14:27;;;;;;;3.17;1.77;;;22.40;90.40;;;;;;5054941;28;21005;-52
2022/06/29 00:16:54;;;;;;;3.73;1.90;;;22.40;90.00;;;;;;5056459;28;20493;-52
2022/06/29 00:19:21;;;;;;;2.40;2.07;;;22.30;90.40;;;;;;5059138;28;20570;-52
2022/06/29 00:21:47;;;;;;;3.07;2.50;;;22.30;90.50;;;;;;5060838;28;20482;-52
2022/06/29 00:24:14;;;;;;;2.87;2.63;;;22.30;90.40;;;;;;5055647;28;20458;-55
2022/06/29 00:26:43;;;;;;;2.97;2.23;;;22.30;90.70;;;;;;5055664;28;20457;-52
2022/06/29 00:29:09;;;;;;;3.17;2.37;;;22.30;90.60;;;;;;5057760;28;20494;-52
2022/06/29 00:31:36;;;;;;;3.60;2.13;;;22.20;91.00;;;;;;5062144;28;20477;-52
2022/06/29 00:34:03;;;;;;;3.50;2.47;;;22.20;90.80;;;;;;5060839;28;20969;-52
2022/06/29 00:36:29;;;;;;;2.33;2.07;;;22.20;91.10;;;;;;5043026;28;20493;-52
2022/06/29 00:38:56;;;;;;;3.87;1.90;;;22.20;91.40;;;;;;5056641;28;20526;-52
2022/06/29 00:41:23;;;;;;;3.20;2.60;;;22.20;91.70;;;;;;5056491;28;20479;-52
2022/06/29 00:43:51;;;;;;;5.33;2.13;;;22.10;92.10;;;;;;5056474;28;20483;-52
2022/06/29 00:46:17;;;;;;;4.63;2.30;;;22.10;91.70;;;;;;5048900;28;20492;-52
2022/06/29 00:48:44;;;;;;;2.50;2.10;;;22.00;91.60;;;;;;5057755;28;20478;-52
2022/06/29 00:51:12;;;;;;;4.10;2.00;;;22.00;91.70;;;;;;5057929;28;20449;-52
2022/06/29 00:53:42;;;;;;;3.97;2.03;;;22.00;92.00;;;;;;5057264;28;20481;-52
2022/06/29 00:56:10;;;;;;;2.70;2.40;;;21.90;92.50;;;;;;5052998;28;20485;-52
2022/06/29 00:58:39;;;;;;;2.70;1.93;;;21.90;92.20;;;;;;5056175;28;20474;-52
2022/06/29 01:01:08;;;;;;;3.50;2.10;;;21.80;92.20;;;;;;5055905;28;20470;-52
2022/06/29 01:03:35;;;;;;;3.63;2.90;;;21.90;92.40;;;;;;5054830;28;21246;-52
2022/06/29 01:06:02;;;;;;;4.53;2.60;;;21.80;92.30;;;;;;5045264;28;20505;-52
2022/06/29 01:08:29;;;;;;;6.33;2.70;;;21.80;92.20;;;;;;5057377;28;20480;-52
2022/06/29 01:10:55;;;;;;;3.97;2.27;;;21.90;92.60;;;;;;5048737;28;20486;-52
2022/06/29 01:13:22;;;;;;;2.70;2.07;;;21.90;92.40;;;;;;5051288;28;21011;-52
2022/06/29 01:15:49;;;;;;;2.63;2.13;;;21.90;92.60;;;;;;5051874;28;20487;-52
2022/06/29 01:18:17;;;;;;;2.83;2.63;;;21.90;91.50;;;;;;5054593;28;20497;-53
2022/06/29 01:20:44;;;;;;;2.33;2.13;;;21.90;91.30;;;;;;5028599;28;20497;-52
2022/06/29 01:23:12;;;;;;;2.77;2.40;;;21.90;90.70;;;;;;5044278;28;20487;-52
2022/06/29 01:25:38;;;;;;;2.40;2.10;;;21.90;92.80;;;;;;5061018;28;20498;-52
2022/06/29 01:28:05;;;;;;;2.70;2.27;;;21.90;92.90;;;;;;5056451;28;20490;-52
2022/06/29 01:30:32;;;;;;;2.70;2.20;;;21.80;93.40;;;;;;5054998;28;20491;-52
2022/06/29 01:32:59;;;;;;;2.33;2.13;;;21.80;93.50;;;;;;5054333;28;20490;-52
2022/06/29 01:35:25;;;;;;;2.47;2.00;;;21.70;93.20;;;;;;5057242;28;20482;-52
2022/06/29 01:37:52;;;;;;;2.80;1.97;;;21.60;93.90;;;;;;5054290;28;20474;-52
2022/06/29 01:40:20;;;;;;;2.40;1.93;;;21.60;94.20;;;;;;5058336;28;20820;-52
2022/06/29 01:42:47;;;;;;;2.87;2.40;;;21.40;94.00;;;;;;5057593;28;20470;-52
2022/06/29 01:45:13;;;;;;;5.03;2.70;;;21.40;94.60;;;;;;5027241;28;20474;-52
2022/06/29 01:47:40;;;;;;;2.23;2.00;;;21.30;94.90;;;;;;5053313;28;20473;-52
2022/06/29 01:50:07;;;;;;;3.00;2.17;;;21.20;94.50;;;;;;5054694;28;20615;-52
2022/06/29 01:52:34;;;;;;;2.10;1.90;;;21.20;94.40;;;;;;5052253;28;20486;-52
2022/06/29 01:55:00;;;;;;;2.67;2.47;;;21.30;94.30;;;;;;5059242;28;20991;-52
2022/06/29 01:57:28;;;;;;;5.43;2.30;;;21.20;94.40;;;;;;5052483;28;20518;-52
2022/06/29 01:59:55;;;;;;;2.93;2.60;;;21.20;94.20;;;;;;5052043;28;20908;-52
2022/06/29 02:02:22;;;;;;;3.60;2.00;;;21.20;94.30;;;;;;5039305;28;21293;-53
2022/06/29 02:04:48;;;;;;;2.73;2.30;;;21.20;93.80;;;;;;5050650;28;20509;-52
2022/06/29 02:07:15;;;;;;;2.67;2.47;;;21.40;93.70;;;;;;5027917;28;20489;-52
2022/06/29 02:09:42;;;;;;;2.57;2.37;;;21.30;93.90;;;;;;5052309;28;20484;-52
2022/06/29 02:12:09;;;;;;;2.30;1.97;;;21.40;93.40;;;;;;5044332;28;20981;-52
2022/06/29 02:14:37;;;;;;;4.00;2.73;;;21.40;93.80;;;;;;5052066;28;20472;-52
2022/06/29 02:17:04;;;;;;;3.63;2.50;;;21.50;93.70;;;;;;5057389;28;20485;-52
2022/06/29 02:19:30;;;;;;;6.17;2.70;;;21.50;92.50;;;;;;5057763;28;20498;-52
2022/06/29 02:21:57;;;;;;;3.70;2.73;;;21.50;92.30;;;;;;5049058;28;20486;-52
2022/06/29 02:24:24;;;;;;;2.60;2.40;;;21.50;92.80;;;;;;5058079;28;20482;-52
2022/06/29 02:26:50;;;;;;;3.60;2.50;;;21.40;93.00;;;;;;5051520;28;20852;-52
2022/06/29 02:29:17;;;;;;;2.30;2.10;;;21.40;93.20;;;;;;5047712;28;20485;-52
2022/06/29 02:37:10;;;;;;;3.33;2.83;;;21.40;92.90;;;;;;5036079;28;20817;-52
2022/06/29 02:39:38;;;;;;;2.80;2.40;;;21.30;93.30;;;;;;5049018;28;20477;-52
2022/06/29 02:42:05;;;;;;;3.23;2.13;;;21.30;93.10;;;;;;5053286;28;20501;-52
2022/06/29 02:44:32;;;;;;;3.93;2.57;;;21.20;92.50;;;;;;5051652;28;20482;-52
2022/06/29 02:47:00;;;;;;;3.40;2.57;;;21.20;92.60;;;;;;5055408;28;20497;-52
2022/06/29 02:49:26;;;;;;;4.20;2.53;;;21.10;92.00;;;;;;5058541;28;20859;-52
2022/06/29 02:51:53;;;;;;;3.40;2.70;;;21.10;91.60;;;;;;5054068;28;20474;-52
2022/06/29 02:54:20;;;;;;;6.63;2.73;;;21.10;91.80;;;;;;5057095;28;20500;-52
2022/06/29 02:56:46;;;;;;;3.10;2.30;;;21.10;92.10;;;;;;5054727;28;20491;-52
2022/06/29 02:59:13;;;;;;;4.33;3.50;;;21.10;92.00;;;;;;5055266;28;20481;-53
2022/06/29 03:01:40;;;;;;;3.13;2.83;;;21.10;92.10;;;;;;5053789;28;20926;-52
2022/06/29 03:04:08;;;;;;;2.53;2.33;;;21.10;91.90;;;;;;5062065;28;20482;-52
2022/06/29 03:06:34;;;;;;;3.57;3.27;;;21.10;91.80;;;;;;5038562;28;20535;-52
2022/06/29 03:09:01;;;;;;;2.83;2.60;;;21.10;91.40;;;;;;5047513;28;20968;-52
2022/06/29 03:11:28;;;;;;;4.87;2.53;;;21.10;92.00;;;;;;5031641;28;20493;-52
2022/06/29 03:13:55;;;;;;;3.33;2.60;;;21.10;92.40;;;;;;5037091;28;20512;-52
2022/06/29 03:16:22;;;;;;;2.70;2.50;;;21.10;92.70;;;;;;5018718;28;20503;-52
2022/06/29 03:18:49;;;;;;;5.13;3.00;;;21.10;92.60;;;;;;5051068;28;20455;-52
2022/06/29 03:21:17;;;;;;;3.83;3.23;;;21.00;93.20;;;;;;5010760;28;20489;-52
2022/06/29 03:23:45;;;;;;;5.50;2.70;;;21.00;93.20;;;;;;5045658;28;20495;-51
2022/06/29 03:26:12;;;;;;;3.00;2.30;;;21.00;93.70;;;;;;5020807;28;20614;-52
2022/06/29 03:28:39;;;;;;;3.50;3.20;;;21.00;93.60;;;;;;5043325;28;20488;-52
2022/06/29 03:31:06;;;;;;;3.00;2.70;;;20.90;94.50;;;;;;5033370;28;21148;-52
2022/06/29 03:33:32;;;;;;;10.40;3.10;;;20.70;95.10;;;;;;5049518;28;20476;-52
2022/06/29 03:35:59;;;;;;;2.60;2.40;;;20.70;95.40;;;;;;4978047;28;20489;-52
2022/06/29 03:38:27;;;;;;;3.47;2.50;;;20.60;95.70;;;;;;5041787;28;20490;-52
2022/06/29 03:40:54;;;;;;;5.33;3.00;;;20.50;95.40;;;;;;5026618;28;20869;-52
2022/06/29 03:43:20;;;;;;;3.63;3.33;;;20.60;95.30;;;;;;5007215;28;20520;-52
2022/06/29 03:45:47;;;;;;;6.10;3.23;;;20.60;95.50;;;;;;5022629;28;21026;-52
2022/06/29 03:48:15;;;;;;;9.57;3.40;;;20.50;95.90;;;;;;5020313;28;20492;-52
2022/06/29 03:50:42;;;;;;;4.40;3.10;;;20.50;95.90;;;;;;5009786;28;20596;-52
2022/06/29 03:53:08;;;;;;;5.10;3.73;;;20.40;96.10;;;;;;4998570;28;21034;-52
2022/06/29 03:55:36;;;;;;;3.43;2.50;;;20.40;95.50;;;;;;5021697;28;20474;-52
2022/06/29 03:58:03;;;;;;;4.20;2.70;;;20.40;95.80;;;;;;5000256;28;20506;-52
2022/06/29 04:00:30;;;;;;;4.23;2.50;;;20.40;95.80;;;;;;5006287;28;20484;-52
2022/06/29 04:02:57;;;;;;;3.33;3.00;;;20.40;95.40;;;;;;5032567;28;20481;-52
2022/06/29 04:05:23;;;;;;;3.47;3.17;;;20.40;95.40;;;;;;5008556;28;20506;-52
2022/06/29 04:07:50;;;;;;;4.10;3.40;;;20.50;95.20;;;;;;5033323;28;21005;-52
2022/06/29 04:10:17;;;;;;;5.03;3.00;;;20.50;95.20;;;;;;5008764;28;20486;-53
2022/06/29 04:12:45;;;;;;;3.30;2.93;;;20.50;95.40;;;;;;5007470;28;20496;-52
2022/06/29 04:15:12;;;;;;;3.30;2.97;;;20.60;96.40;;;;;;5041447;28;20520;-53
2022/06/29 04:17:38;;;;;;;3.90;2.60;;;20.60;95.50;;;;;;5054299;28;20477;-53
2022/06/29 04:20:06;;;;;;;5.00;2.93;;;20.60;96.00;;;;;;5054043;28;20482;-52
2022/06/29 04:22:33;;;;;;;4.60;3.40;;;20.60;95.80;;;;;;5052638;28;20472;-52
2022/06/29 04:25:00;;;;;;;5.60;2.30;;;20.70;95.80;;;;;;5055964;28;20492;-52
2022/06/29 04:27:26;;;;;;;4.67;2.80;;;20.70;95.70;;;;;;5054455;28;20557;-51
2022/06/29 04:29:54;;;;;;;5.30;3.00;;;20.80;95.80;;;;;;5057695;28;20497;-52
2022/06/29 04:32:21;;;;;;;5.00;2.73;;;20.70;95.80;;;;;;5058062;28;20478;-52
2022/06/29 04:34:48;;;;;;;2.80;2.40;;;20.80;96.00;;;;;;5056492;28;20497;-52
2022/06/29 04:37:14;;;;;;;3.77;3.47;;;20.80;96.00;;;;;;5052382;28;20487;-52
2022/06/29 04:39:41;;;;;;;3.77;3.30;;;20.80;96.10;;;;;;5058942;28;21010;-52
2022/06/29 04:42:08;;;;;;;3.17;2.83;;;20.90;95.70;;;;;;5058707;28;20485;-52
2022/06/29 04:44:34;;;;;;;6.83;3.67;;;20.90;95.90;;;;;;5057998;28;20466;-52
2022/06/29 04:47:03;;;;;;;3.77;2.70;;;20.90;95.40;;;;;;5056835;28;20489;-52
2022/06/29 04:49:29;;;;;;;2.90;2.60;;;20.90;95.70;;;;;;5050564;28;20482;-52
2022/06/29 04:51:56;;;;;;;9.03;3.40;;;20.90;95.70;;;;;;5055831;28;21013;-52
2022/06/29 04:54:23;;;;;;;5.30;3.43;;;20.90;95.50;;;;;;5049492;28;20493;-52
2022/06/29 04:56:49;;;;;;;3.43;3.00;;;20.80;95.80;;;;;;5055619;28;20518;-52
2022/06/29 04:59:16;;;;;;;4.03;3.27;;;20.90;95.90;;;;;;5059611;28;20503;-53
2022/06/29 05:01:43;;;;;;;3.90;2.03;;;20.90;95.70;;;;;;5057104;28;20484;-52
2022/06/29 05:04:11;;;;;;;2.60;2.40;;;20.90;95.60;;;;;;5042485;28;20497;-53
2022/06/29 05:06:38;;;;;;;3.37;3.07;;;21.00;95.70;;;;;;5054907;28;20474;-52
2022/06/29 05:09:04;;;;;;;4.10;3.30;;;21.10;95.90;;;;;;5057543;28;20474;-52
2022/06/29 05:11:31;;;;;;;3.70;2.90;;;21.10;95.20;;;;;;5056557;28;20484;-52
2022/06/29 05:13:58;;;;;;;2.97;2.67;;;21.20;95.10;;;;;;5059589;28;21545;-52
2022/06/29 05:16:25;;;;;;;2.87;2.43;;;21.10;95.30;;;;;;5055150;28;20987;-51
2022/06/29 05:18:51;;;;;;;3.50;2.67;;;21.10;94.10;;;;;;5055914;28;20481;-51
2022/06/29 05:21:20;;;;;;;3.30;3.00;;;21.10;94.50;;;;;;5047002;28;20501;-52
2022/06/29 05:23:47;;;;;;;4.03;2.70;;;21.30;93.90;;;;;;5053126;28;20486;-52
2022/06/29 05:26:14;;;;;;;3.57;3.20;;;21.30;94.10;;;;;;5056945;28;20846;-52
2022/06/29 05:28:41;;;;;;;3.77;3.40;;;21.50;94.00;;;;;;5053872;28;21068;-53
2022/06/29 05:31:08;;;;;;;3.17;2.83;;;21.50;94.30;;;;;;5056101;28;20554;-53
2022/06/29 05:33:37;;;;;;;2.90;2.70;;;21.60;94.50;;;;;;5056791;28;20469;-52
2022/06/29 05:36:06;;;;;;;4.20;3.60;;;21.70;94.20;;;;;;5051781;28;20862;-52
2022/06/29 05:38:34;;;;;;;2.50;2.27;;;21.70;94.40;;;;;;5052927;28;20481;-52
2022/06/29 05:41:01;;;;;;;2.70;2.37;;;21.80;94.40;;;;;;5054224;28;20486;-52
2022/06/29 05:43:29;;;;;;;2.77;2.40;;;21.90;93.90;;;;;;5060753;28;20482;-52
2022/06/29 05:45:56;;;;;;;4.27;3.20;;;22.00;94.20;;;;;;5053829;28;20485;-52
2022/06/29 05:48:23;;;;;;;3.90;2.90;;;22.10;94.40;;;;;;5050837;28;20992;-52
2022/06/29 05:50:50;;;;;;;4.83;2.57;;;22.20;94.00;;;;;;5049035;28;20790;-52
2022/06/29 05:53:17;;;;;;;3.50;2.70;;;22.30;92.90;;;;;;5057994;28;20481;-51
2022/06/29 05:55:46;;;;;;;4.27;3.10;;;22.30;92.90;;;;;;5048680;28;20552;-52
2022/06/29 05:58:18;;;;;;;3.53;3.07;;;22.50;92.00;;;;;;5056458;28;20960;-52
2022/06/29 06:00:45;;;;;;;4.90;2.67;;;22.50;91.50;;;;;;5054415;28;20510;-52
2022/06/29 06:03:12;;;;;;;3.23;2.77;;;22.60;92.50;;;;;;5058103;28;20486;-57
2022/06/29 06:05:39;;;;;;;4.93;2.63;;;22.80;92.70;;;;;;5059648;28;20474;-52
2022/06/29 06:08:06;;;;;;;2.90;2.60;;;22.80;92.90;;;;;;5055984;28;20529;-52
2022/06/29 06:10:32;;;;;;;6.40;2.70;;;22.80;92.60;;;;;;5043991;28;20493;-52
2022/06/29 06:13:00;;;;;;;2.67;2.27;;;22.90;91.00;;;;;;5047888;28;20486;-52
2022/06/29 06:15:27;;;;;;;2.70;2.50;;;22.90;91.20;;;;;;5051615;28;20486;-52
2022/06/29 06:17:54;;;;;;;2.40;1.97;;;23.00;90.90;;;;;;5052326;28;20540;-53
2022/06/29 06:20:21;;;;;;;3.30;3.00;;;23.10;90.60;;;;;;5057211;28;20474;-52
2022/06/29 06:22:47;;;;;;;3.20;2.60;;;23.10;91.30;;;;;;5049560;28;20474;-52
2022/06/29 06:25:14;;;;;;;4.97;3.47;;;23.20;91.10;;;;;;5065365;28;20481;-52
2022/06/29 06:27:41;;;;;;;10.60;2.60;;;23.40;90.80;;;;;;5051607;28;20483;-52
2022/06/29 06:30:10;;;;;;;3.37;2.57;;;23.50;90.30;;;;;;5058033;28;20908;-52
2022/06/29 06:32:37;;;;;;;2.77;2.57;;;23.50;90.20;;;;;;5054869;28;20837;-52
2022/06/29 06:35:04;;;;;;;3.23;2.90;;;23.50;90.50;;;;;;5059517;28;20471;-52
2022/06/29 06:37:31;;;;;;;2.03;1.83;;;23.60;90.90;;;;;;5056438;28;20943;-52
2022/06/29 06:42:42;;;;;;;5.20;2.53;;;23.70;89.80;;;;;;5049190;28;20477;-52
2022/06/29 06:45:10;;;;;;;3.63;2.23;;;23.70;91.10;;;;;;5047352;28;20491;-52
2022/06/29 06:47:37;;;;;;;3.03;2.53;;;23.60;88.80;;;;;;5054323;28;20474;-51
2022/06/29 06:50:04;;;;;;;2.50;2.30;;;23.50;89.50;;;;;;5056083;28;20566;-52
2022/06/29 06:52:31;;;;;;;2.57;2.13;;;23.50;89.00;;;;;;5060215;28;20484;-51
2022/06/29 06:54:58;;;;;;;4.30;2.70;;;23.50;89.70;;;;;;5055468;28;20465;-52
2022/06/29 06:57:24;;;;;;;3.83;3.03;;;23.60;90.80;;;;;;5051952;28;20495;-52
2022/06/29 06:59:53;;;;;;;3.33;2.60;;;23.50;87.20;;;;;;5051226;28;20461;-52
2022/06/29 07:02:21;;;;;;;2.87;2.60;;;23.50;87.30;;;;;;5058415;28;20569;-53
2022/06/29 07:04:48;;;;;;;3.50;2.43;;;23.60;88.30;;;;;;5057035;28;20486;-52
2022/06/29 07:07:15;;;;;;;2.53;2.33;;;23.60;88.10;;;;;;5054433;28;20514;-52
2022/06/29 07:09:41;;;;;;;2.60;2.40;;;23.60;89.30;;;;;;5062654;28;20828;-52
2022/06/29 07:12:08;;;;;;;3.83;2.00;;;23.70;86.60;;;;;;5057116;28;20967;-53
2022/06/29 07:14:35;;;;;;;2.63;2.43;;;23.70;89.00;;;;;;5059697;28;20946;-52
2022/06/29 07:17:02;;;;;;;7.43;2.37;;;23.80;88.20;;;;;;5056000;28;20692;-52
2022/06/29 07:19:30;;;;;;;2.73;2.43;;;23.80;87.70;;;;;;5058360;28;20482;-52
2022/06/29 07:21:56;;;;;;;3.60;2.53;;;24.00;88.00;;;;;;5058598;28;20479;-53
2022/06/29 07:24:23;;;;;;;3.10;2.77;;;24.00;88.60;;;;;;5058563;28;20487;-53
2022/06/29 07:26:50;;;;;;;3.60;2.50;;;24.10;88.50;;;;;;5054881;28;20479;-52
2022/06/29 07:29:16;;;;;;;3.33;2.77;;;24.10;88.40;;;;;;5055494;28;21521;-53
2022/06/29 07:31:43;;;;;;;3.67;2.10;;;24.00;89.20;;;;;;5035887;28;20479;-51
2022/06/29 07:34:10;;;;;;;4.07;3.13;;;24.00;90.00;;;;;;5055899;28;21013;-51
2022/06/29 07:36:38;;;;;;;5.70;3.50;;;24.00;89.80;;;;;;5049567;28;20478;-52
2022/06/29 07:39:04;;;;;;;3.73;2.63;;;23.90;88.40;;;;;;5056058;28;21175;-52
2022/06/29 07:41:31;;;;;;;2.90;2.70;;;23.90;89.00;;;;;;5055061;28;20483;-52
2022/06/29 07:43:58;;;;;;;3.57;2.73;;;23.90;87.20;;;;;;5062218;28;20923;-52
2022/06/29 07:46:25;;;;;;;3.90;3.13;;;23.80;88.10;;;;;;5043981;28;20483;-52
2022/06/29 07:48:51;;;;;;;2.57;2.30;;;23.80;86.60;;;;;;5049854;28;20865;-52
2022/06/29 07:51:18;;;;;;;7.00;3.23;;;23.80;87.80;;;;;;5061363;28;21015;-53
2022/06/29 07:53:46;;;;;;;4.33;3.80;;;23.80;88.00;;;;;;5060211;28;20473;-53
2022/06/29 07:56:13;;;;;;;6.90;2.90;;;23.80;87.50;;;;;;5028970;28;20959;-52
2022/06/29 07:58:39;;;;;;;3.60;2.90;;;23.80;88.90;;;;;;5065813;28;20473;-53
2022/06/29 08:01:06;;;;;;;3.80;2.87;;;23.90;87.50;;;;;;5054415;28;21006;-52
2022/06/29 08:03:33;;;;;;;3.90;3.50;;;23.70;87.40;;;;;;5054380;28;20474;-52
2022/06/29 08:06:00;;;;;;;4.13;3.30;;;23.80;89.60;;;;;;5060402;28;20502;-53
2022/06/29 08:08:28;;;;;;;3.80;2.97;;;23.70;86.80;;;;;;5055173;28;20487;-53
2022/06/29 08:10:56;;;;;;;3.60;3.30;;;23.70;87.50;;;;;;5065472;28;20477;-53
2022/06/29 08:13:22;;;;;;;3.40;3.10;;;23.80;89.30;;;;;;5064375;28;20876;-53
2022/06/29 08:15:49;;;;;;;3.33;3.03;;;23.90;88.10;;;;;;5053540;28;20905;-53
2022/06/29 08:18:17;;;;;;;3.70;2.80;;;24.00;88.60;;;;;;5051969;28;20994;-52
2022/06/29 08:20:44;;;;;;;4.00;3.23;;;24.00;88.70;;;;;;5061117;28;21000;-52
2022/06/29 08:23:11;;;;;;;2.60;2.40;;;24.20;90.70;;;;;;5061431;28;20923;-52
2022/06/29 08:25:38;;;;;;;3.03;2.50;;;24.30;90.60;;;;;;5061976;28;20467;-53
2022/06/29 08:28:06;;;;;;;4.30;2.70;;;24.60;90.30;;;;;;5057436;28;20478;-52
2022/06/29 08:30:33;;;;;;;4.07;2.67;;;24.60;90.40;;;;;;5061392;28;20615;-52
2022/06/29 08:33:00;;;;;;;4.97;2.60;;;25.10;88.60;;;;;;5063658;28;20456;-52
2022/06/29 08:35:27;;;;;;;3.60;2.67;;;25.10;89.10;;;;;;5061668;28;20561;-52
2022/06/29 08:37:54;;;;;;;8.33;2.70;;;25.30;85.90;;;;;;5050605;28;20992;-52
2022/06/29 08:40:21;;;;;;;10.00;2.93;;;25.30;86.20;;;;;;5060477;28;20592;-53
2022/06/29 08:42:48;;;;;;;4.63;2.43;;;25.40;85.90;;;;;;5044020;28;20469;-52
2022/06/29 08:45:17;;;;;;;3.60;3.00;;;25.40;87.00;;;;;;5059871;28;20474;-52
2022/06/29 08:47:44;;;;;;;3.23;2.97;;;25.50;85.20;;;;;;5043793;28;20936;-54
2022/06/29 08:50:12;;;;;;;2.80;2.60;;;25.60;85.70;;;;;;5054031;28;20481;-52
2022/06/29 08:52:40;;;;;;;2.97;2.47;;;;;;;;;;5050881;28;20802;-52
2022/06/29 08:55:09;;;;;;;2.97;2.50;;;26.00;84.80;;;;;;5062206;28;20884;-51
2022/06/29 08:57:36;;;;;;;5.30;2.33;;;26.10;86.70;;;;;;5050553;28;21036;-51
2022/06/29 09:00:05;;;;;;;2.50;2.20;;;26.20;85.80;;;;;;5063970;28;20485;-52
2022/06/29 09:02:34;;;;;;;7.97;3.60;;;26.20;83.60;;;;;;5052953;28;20916;-53
2022/06/29 09:05:00;;;;;;;3.37;2.63;;;26.40;87.10;;;;;;5063129;28;20449;-53
2022/06/29 09:07:28;;;;;;;2.80;2.50;;;26.20;82.40;;;;;;5048561;28;20851;-53
2022/06/29 09:09:59;;;;;;;4.70;3.27;;;26.30;84.00;;;;;;5064299;28;20482;-53
2022/06/29 09:12:26;;;;;;;3.00;2.70;;;26.00;82.80;;;;;;5057084;28;20486;-53
2022/06/29 09:14:52;;;;;;;4.37;3.43;;;26.00;84.20;;;;;;5059374;28;20484;-52
2022/06/29 09:17:19;;;;;;;3.80;2.73;;;26.10;83.60;;;;;;5038274;28;20467;-53
2022/06/29 09:19:48;;;;;;;4.20;2.60;;;26.30;83.30;;;;;;5063467;28;20509;-52
2022/06/29 09:22:15;;;;;;;5.23;2.83;;;26.60;86.00;;;;;;5061660;28;20486;-53
2022/06/29 09:24:43;;;;;;;5.30;2.87;;;26.60;83.30;;;;;;5062801;28;20485;-52
2022/06/29 09:27:12;;;;;;;3.60;2.73;;;26.50;84.20;;;;;;5050034;28;20479;-53
2022/06/29 09:29:41;;;;;;;2.60;2.40;;;26.50;84.60;;;;;;5059580;28;20611;-52
2022/06/29 09:32:10;;;;;;;2.73;2.53;;;26.60;79.80;;;;;;5053169;28;20453;-52
2022/06/29 09:34:37;;;;;;;3.27;3.07;;;26.60;79.20;;;;;;5059204;28;21145;-52
2022/06/29 09:37:06;;;;;;;3.43;2.63;;;26.40;82.40;;;;;;5053787;28;20500;-52
2022/06/29 09:39:35;;;;;;;4.13;3.17;;;26.30;80.90;;;;;;5063354;28;21559;-54
2022/06/29 09:42:05;;;;;;;3.53;3.10;;;26.30;83.30;;;;;;5062330;28;21432;-52
2022/06/29 09:44:31;;;;;;;3.40;3.10;;;26.30;82.20;;;;;;5063225;28;20482;-53
2022/06/29 09:46:58;;;;;;;2.67;2.47;;;26.60;83.70;;;;;;5051026;28;20470;-52
2022/06/29 09:49:27;;;;;;;3.23;2.40;;;27.00;80.50;;;;;;5056142;28;20471;-52
2022/06/29 09:51:56;;;;;;;3.07;2.77;;;27.00;78.40;;;;;;5018313;28;20557;-51
2022/06/29 09:54:30;;;;;;;3.03;2.60;;;27.10;79.40;;;;;;5052181;28;20474;-51
2022/06/29 09:56:58;;;;;;;3.20;2.90;;;27.30;76.70;;;;;;5028833;28;20984;-52
2022/06/29 10:02:36;;;;;;;6.07;3.20;;;27.20;76.00;;;;;;5058803;28;20527;-51
2022/06/29 10:05:05;;;;;;;4.00;2.70;;;27.00;76.30;;;;;;5050654;28;20481;-52
2022/06/29 10:07:34;;;;;;;3.60;3.30;;;27.00;77.00;;;;;;5055597;28;20864;-51
2022/06/29 10:10:04;;;;;;;2.57;2.10;;;27.10;77.10;;;;;;5058426;28;20453;-52
2022/06/29 10:16:02;;;;;;;2.37;1.90;;;27.00;74.70;;;;;;5055652;28;20899;-51
2022/06/29 10:18:40;;;;;;;2.70;2.37;;;27.50;76.10;;;;;;5042865;28;20477;-51
2022/06/29 10:21:14;;;;;;;2.77;2.47;;;27.50;74.90;;;;;;5059473;28;20474;-52
2022/06/29 10:23:47;;;;;;;4.03;2.40;;;27.50;74.30;;;;;;5061301;28;20452;-53
2022/06/29 10:26:49;;;;;;;3.13;2.73;;;27.30;75.80;;;;;;5055217;28;20919;-52
2022/06/29 10:29:36;;;;;;;4.23;2.90;;;27.00;75.70;;;;;;5050575;28;20443;-52
2022/06/29 10:32:23;;;;;;;3.47;2.73;;;27.00;78.50;;;;;;5056452;28;20587;-52
2022/06/29 10:35:07;;;;;;;2.60;2.40;;;27.00;80.40;;;;;;5058656;28;20482;-52
2022/06/29 10:37:46;;;;;;;2.50;2.30;;;27.00;76.50;;;;;;5059297;28;20985;-53
2022/06/29 10:40:17;;;;;;;2.57;2.37;;;27.10;79.70;;;;;;5065625;28;20957;-52
2022/06/29 10:45:40;;;;;;;4.70;3.40;;;27.20;74.60;;;;;;5053386;28;20493;-53
2022/06/29 10:48:15;;;;;;;3.13;2.83;;;27.40;76.40;;;;;;5029524;28;21144;-52
2022/06/29 10:50:44;;;;;;;3.40;3.10;;;27.30;75.10;;;;;;5048799;28;20469;-52
2022/06/29 10:53:12;;;;;;;3.00;2.70;;;27.40;75.70;;;;;;5041575;28;21006;-52
2022/06/29 10:55:40;;;;;;;2.70;2.50;;;27.50;76.00;;;;;;5058290;28;20477;-52
2022/06/29 10:58:08;;;;;;;2.83;2.37;;;27.70;76.60;;;;;;5051226;28;20453;-52
2022/06/29 11:00:38;;;;;;;2.97;2.67;;;27.90;79.10;;;;;;5063878;28;20485;-51
2022/06/29 11:03:12;;;;;;;3.60;3.20;;;28.40;76.60;;;;;;5047803;28;20477;-52
2022/06/29 11:13:57;;;;;;;3.10;2.90;;;28.50;71.10;;;;;;5065276;28;20488;-52
2022/06/29 11:16:37;;;;;;;2.77;2.50;;;28.30;72.50;;;;;;5049068;28;20601;-51
2022/06/29 11:19:05;;;;;;;4.27;2.83;;;28.20;73.00;;;;;;5063710;28;20693;-52
2022/06/29 11:21:32;;;;;;;2.53;2.33;;;28.50;75.20;;;;;;5064229;28;20932;-51
2022/06/29 11:24:04;;;;;;;3.10;2.80;;;29.00;72.30;;;;;;5036818;28;20553;-51
2022/06/29 11:26:33;;;;;;;2.53;2.33;;;29.00;69.70;;;;;;5030103;28;20449;-51
2022/06/29 11:29:02;;;;;;;5.57;3.27;;;29.40;70.90;;;;;;5039783;28;20446;-51
2022/06/29 11:31:28;;;;;;;4.83;3.43;;;29.40;67.60;;;;;;5062628;28;20477;-51
2022/06/29 11:33:56;;;;;;;3.00;2.70;;;29.10;68.50;;;;;;5059672;28;20453;-51
2022/06/29 11:36:25;;;;;;;6.87;3.37;;;29.40;76.30;;;;;;5057229;28;20620;-50
2022/06/29 11:38:53;;;;;;;3.00;2.70;;;29.40;76.40;;;;;;5063769;28;20910;-51
2022/06/29 11:41:22;;;;;;;3.50;3.20;;;30.00;75.20;;;;;;5060710;28;21046;-50
2022/06/29 11:44:04;;;;;;;4.10;2.90;;;30.50;73.60;;;;;;5058406;28;20947;-50
2022/06/29 11:46:35;;;;;;;7.70;3.40;;;30.60;74.80;;;;;;5046476;28;20483;-51
2022/06/29 11:51:55;;;;;;;3.27;2.90;;;30.60;68.10;;;;;;5054518;28;20455;-51
2022/06/29 11:54:35;;;;;;;3.47;3.10;;;30.60;68.70;;;;;;5058435;28;20480;-51
2022/06/29 11:57:05;;;;;;;3.73;3.43;;;30.20;69.60;;;;;;5057203;28;20920;-50
2022/06/29 11:59:35;;;;;;;3.03;2.83;;;29.90;68.00;;;;;;5062368;28;20453;-51
2022/06/29 12:02:02;;;;;;;3.93;3.23;;;29.90;73.70;;;;;;5034216;28;20947;-52
2022/06/29 12:04:31;;;;;;;3.60;3.30;;;29.80;71.30;;;;;;5064398;28;20816;-51
2022/06/29 12:07:05;;;;;;;2.63;2.43;;;29.70;69.90;;;;;;5054989;28;20953;-51
2022/06/29 12:09:32;;;;;;;3.57;3.27;;;29.80;71.70;;;;;;5046506;28;20445;-51
2022/06/29 12:11:59;;;;;;;5.57;3.90;;;29.80;72.60;;;;;;5052463;28;20463;-51
2022/06/29 12:14:26;;;;;;;3.60;3.30;;;29.50;72.20;;;;;;5042438;28;20482;-51
2022/06/29 12:16:54;;;;;;;4.00;3.33;;;29.60;73.40;;;;;;5057320;28;20457;-51
2022/06/29 12:19:21;;;;;;;4.00;3.17;;;29.80;71.80;;;;;;5056014;28;20456;-51
2022/06/29 12:21:48;;;;;;;4.10;3.53;;;29.50;70.90;;;;;;5057617;28;20487;-52
2022/06/29 12:24:15;;;;;;;4.03;3.57;;;29.50;70.00;;;;;;5057126;28;20474;-52
2022/06/29 12:26:42;;;;;;;3.50;3.07;;;29.10;71.00;;;;;;5051200;28;20473;-52
2022/06/29 12:29:09;;;;;;;2.97;2.70;;;28.80;72.50;;;;;;5050445;28;20482;-51
2022/06/29 12:31:36;;;;;;;3.63;3.20;;;29.00;74.80;;;;;;5044570;28;20463;-51
2022/06/29 12:34:05;;;;;;;3.80;2.77;;;29.00;75.00;;;;;;5040489;28;20491;-51
2022/06/29 12:36:31;;;;;;;3.30;3.00;;;29.40;75.60;;;;;;5029849;28;21004;-51
2022/06/29 12:38:58;;;;;;;3.13;2.93;;;29.50;76.50;;;;;;5049329;28;20858;-51
2022/06/29 12:41:24;;;;;;;3.83;3.53;;;30.00;76.70;;;;;;5038698;28;20466;-51
2022/06/29 12:43:51;;;;;;;3.93;3.53;;;30.40;75.20;;;;;;5049822;28;20482;-51
2022/06/29 12:46:18;;;;;;;3.50;3.10;;;30.70;72.80;;;;;;5048219;28;20482;-50
2022/06/29 12:48:45;;;;;;;3.10;2.80;;;30.80;70.50;;;;;;5054679;28;20919;-51
2022/06/29 12:51:14;;;;;;;3.13;2.87;;;31.00;73.60;;;;;;5054639;28;20463;-51
2022/06/29 12:53:41;;;;;;;7.43;4.23;;;31.10;73.20;;;;;;5055051;28;20990;-51
2022/06/29 12:56:08;;;;;;;6.53;3.00;;;30.90;72.80;;;;;;5058836;28;20460;-51
2022/06/29 12:58:35;;;;;;;3.50;3.00;;;31.10;73.70;;;;;;5042653;28;20477;-51
2022/06/29 13:01:03;;;;;;;3.40;2.80;;;30.90;68.60;;;;;;5057143;28;20984;-51
2022/06/29 13:03:29;;;;;;;2.80;2.60;;;30.60;71.50;;;;;;5063361;28;20506;-53
2022/06/29 13:05:56;;;;;;;4.47;2.40;;;30.60;70.60;;;;;;5055448;28;20482;-51
2022/06/29 13:08:24;;;;;;;3.80;3.50;;;30.50;69.70;;;;;;5051338;28;20563;-51
2022/06/29 13:10:51;;;;;;;3.20;2.90;;;30.40;67.80;;;;;;5053887;28;20458;-51
2022/06/29 13:13:18;;;;;;;3.27;2.80;;;30.50;70.60;;;;;;5056091;28;21020;-51
2022/06/29 13:15:45;;;;;;;5.23;2.67;;;30.70;68.10;;;;;;5054767;28;20478;-51
2022/06/29 13:18:11;;;;;;;3.00;2.80;;;30.70;69.70;;;;;;5049896;28;21025;-51
2022/06/29 13:20:38;;;;;;;7.73;3.57;;;30.90;75.30;;;;;;5052768;28;20977;-52